createdAt,value
2019-02-23T00:01:33.725Z,12.20
2019-02-23T00:04:06.184Z,12.40
2019-02-23T00:06:38.052Z,12.40
2019-02-23T00:09:10.613Z,12.60
2019-02-23T00:11:42.548Z,12.50
2019-02-23T00:14:14.653Z,12.60
2019-02-23T00:16:46.679Z,12.70
2019-02-23T00:19:24.886Z,12.80
2019-02-23T00:21:52.663Z,12.70
2019-02-23T00:24:24.730Z,12.30
2019-02-23T00:26:56.541Z,12.70
2019-02-23T00:29:28.564Z,12.80
2019-02-23T00:32:00.356Z,12.80
2019-02-23T00:34:32.805Z,12.70
2019-02-23T00:37:04.610Z,12.60
2019-02-23T00:39:36.723Z,12.60
2019-02-23T00:42:08.513Z,12.60
2019-02-23T00:44:40.381Z,12.50
2019-02-23T00:47:12.155Z,12.50
2019-02-23T00:49:44.372Z,12.50
2019-02-23T00:52:16.179Z,12.70
2019-02-23T00:54:48.029Z,12.70
2019-02-23T00:57:19.808Z,12.70
2019-02-23T00:59:51.828Z,12.60
2019-02-23T01:02:23.579Z,12.50
2019-02-23T01:04:56.718Z,12.60
2019-02-23T01:07:28.530Z,12.60
2019-02-23T01:10:00.801Z,12.50
2019-02-23T01:12:32.656Z,12.60
2019-02-23T01:15:05.040Z,13.20
2019-02-23T01:17:36.924Z,12.70
2019-02-23T01:20:11.526Z,12.80
2019-02-23T01:22:43.307Z,13.00
2019-02-23T01:25:15.349Z,12.90
2019-02-23T01:27:47.291Z,12.80
2019-02-23T01:30:19.387Z,12.80
2019-02-23T01:32:51.177Z,12.80
2019-02-23T01:35:23.417Z,12.80
2019-02-23T01:37:55.167Z,12.80
2019-02-23T01:40:27.344Z,13.00
2019-02-23T01:42:59.106Z,13.00
2019-02-23T01:45:41.906Z,13.20
2019-02-23T01:48:04.636Z,13.10
2019-02-23T01:50:37.137Z,12.80
2019-02-23T01:53:08.903Z,13.00
2019-02-23T01:55:40.973Z,12.80
2019-02-23T01:58:12.761Z,12.80
2019-02-23T02:00:44.718Z,13.00
2019-02-23T02:03:16.716Z,12.80
2019-02-23T02:05:48.884Z,12.90
2019-02-23T02:08:20.613Z,12.80
2019-02-23T02:10:52.622Z,12.80
2019-02-23T02:13:24.543Z,12.60
2019-02-23T02:15:56.570Z,12.60
2019-02-23T02:18:28.330Z,12.50
2019-02-23T02:21:00.691Z,12.70
2019-02-23T02:23:32.517Z,12.80
2019-02-23T02:26:04.455Z,13.00
2019-02-23T02:28:36.304Z,13.10
2019-02-23T02:31:08.254Z,13.00
2019-02-23T02:34:08.895Z,12.80
2019-02-23T02:36:41.265Z,13.00
2019-02-23T02:39:17.528Z,13.00
2019-02-23T02:41:49.352Z,13.00
2019-02-23T02:44:21.158Z,12.80
2019-02-23T02:46:52.999Z,13.10
2019-02-23T02:49:24.753Z,13.00
2019-02-23T02:51:56.911Z,13.10
2019-02-23T02:54:28.640Z,13.10
2019-02-23T02:57:00.529Z,13.20
2019-02-23T02:59:32.283Z,13.10
2019-02-23T03:02:04.705Z,13.20
2019-02-23T03:04:36.825Z,13.20
2019-02-23T03:07:09.233Z,13.40
2019-02-23T03:09:40.973Z,13.40
2019-02-23T03:12:13.059Z,13.20
2019-02-23T03:14:44.805Z,13.20
2019-02-23T03:17:17.082Z,13.40
2019-02-23T03:19:48.806Z,13.40
2019-02-23T03:22:21.213Z,13.20
2019-02-23T03:24:52.976Z,13.10
2019-02-23T03:27:25.057Z,12.90
2019-02-23T03:29:56.849Z,13.00
2019-02-23T03:32:28.871Z,13.10
2019-02-23T03:35:01.924Z,13.10
2019-02-23T03:37:35.562Z,13.10
2019-02-23T03:40:09.089Z,12.90
2019-02-23T03:42:41.122Z,13.00
2019-02-23T03:45:12.860Z,13.00
2019-02-23T03:47:44.869Z,13.00
2019-02-23T03:50:16.611Z,12.80
2019-02-23T03:52:49.283Z,12.90
2019-02-23T03:55:21.060Z,13.00
2019-02-23T03:57:53.112Z,13.00
2019-02-23T04:00:24.887Z,13.00
2019-02-23T04:02:56.745Z,13.00
2019-02-23T04:05:28.519Z,13.20
2019-02-23T04:08:00.866Z,13.00
2019-02-23T04:10:32.665Z,13.20
2019-02-23T04:13:04.806Z,13.40
2019-02-23T04:15:36.565Z,13.20
2019-02-23T04:18:09.738Z,13.60
2019-02-23T04:20:41.556Z,12.50
2019-02-23T04:23:13.385Z,12.90
2019-02-23T04:25:45.191Z,13.00
2019-02-23T04:28:17.054Z,12.90
2019-02-23T04:30:48.822Z,13.10
2019-02-23T04:33:20.647Z,13.20
2019-02-23T04:35:52.421Z,13.70
2019-02-23T04:38:24.842Z,13.20
2019-02-23T04:40:56.584Z,13.30
2019-02-23T04:43:28.558Z,13.10
2019-02-23T04:46:00.428Z,13.20
2019-02-23T04:48:32.301Z,13.20
2019-02-23T04:51:13.780Z,13.30
2019-02-23T04:53:37.942Z,13.50
2019-02-23T04:56:09.728Z,13.30
2019-02-23T04:58:41.778Z,13.30
2019-02-23T05:01:13.582Z,13.40
2019-02-23T05:03:45.703Z,13.40
2019-02-23T05:06:17.476Z,13.30
2019-02-23T05:08:49.934Z,13.10
2019-02-23T05:11:21.755Z,13.00
2019-02-23T05:13:54.072Z,13.20
2019-02-23T05:16:25.827Z,13.40
2019-02-23T05:18:57.890Z,13.40
2019-02-23T05:21:29.829Z,13.10
2019-02-23T05:24:02.124Z,13.20
2019-02-23T05:26:34.021Z,13.10
2019-02-23T05:29:05.879Z,13.30
2019-02-23T05:31:37.933Z,13.30
2019-02-23T05:34:09.807Z,13.40
2019-02-23T05:36:41.556Z,13.60
2019-02-23T05:39:13.812Z,13.70
2019-02-23T05:41:45.633Z,13.50
2019-02-23T05:44:17.705Z,13.50
2019-02-23T05:46:49.468Z,13.60
2019-02-23T05:49:21.377Z,13.50
2019-02-23T05:51:53.145Z,13.30
2019-02-23T05:54:24.944Z,13.40
2019-02-23T05:56:56.718Z,13.60
2019-02-23T05:59:28.693Z,13.70
2019-02-23T06:02:02.256Z,13.90
2019-02-23T06:04:34.059Z,13.70
2019-02-23T06:07:05.829Z,13.60
2019-02-23T06:09:38.086Z,13.90
2019-02-23T06:12:09.986Z,14.30
2019-02-23T06:14:43.027Z,13.90
2019-02-23T06:17:14.777Z,13.90
2019-02-23T06:19:46.623Z,13.70
2019-02-23T06:22:18.384Z,13.60
2019-02-23T06:24:50.536Z,13.60
2019-02-23T06:27:22.319Z,13.70
2019-02-23T06:29:54.310Z,13.40
2019-02-23T06:32:26.082Z,13.50
2019-02-23T06:34:58.255Z,13.20
2019-02-23T06:37:30.138Z,13.10
2019-02-23T06:40:02.481Z,12.70
2019-02-23T06:42:34.237Z,13.40
2019-02-23T06:45:06.603Z,12.90
2019-02-23T06:47:38.398Z,13.00
2019-02-23T06:50:15.474Z,12.80
2019-02-23T06:52:47.256Z,12.60
2019-02-23T06:55:19.138Z,12.20
2019-02-23T06:57:52.103Z,12.30
2019-02-23T07:00:24.226Z,12.80
2019-02-23T07:02:56.039Z,12.10
2019-02-23T07:05:28.044Z,12.30
2019-02-23T07:07:59.846Z,11.90
2019-02-23T07:10:32.174Z,12.30
2019-02-23T07:13:03.936Z,12.50
2019-02-23T07:15:36.363Z,11.90
2019-02-23T07:18:08.260Z,11.70
2019-02-23T07:20:44.151Z,11.70
2019-02-23T07:23:13.896Z,11.70
2019-02-23T07:25:46.588Z,11.70
2019-02-23T07:28:18.457Z,11.90
2019-02-23T07:30:50.875Z,11.70
2019-02-23T07:33:32.368Z,12.00
2019-02-23T07:35:56.522Z,11.80
2019-02-23T07:38:28.341Z,11.60
2019-02-23T07:41:00.488Z,11.50
2019-02-23T07:43:32.272Z,11.20
2019-02-23T07:46:04.196Z,11.40
2019-02-23T07:48:37.418Z,11.70
2019-02-23T07:51:09.448Z,11.60
2019-02-23T07:53:41.271Z,11.70
2019-02-23T07:56:13.204Z,11.40
2019-02-23T07:58:45.103Z,11.00
2019-02-23T08:01:17.044Z,11.20
2019-02-23T08:03:48.902Z,11.10
2019-02-23T08:06:22.036Z,11.00
2019-02-23T08:08:53.808Z,10.90
2019-02-23T08:11:27.050Z,11.20
2019-02-23T08:13:58.830Z,11.00
2019-02-23T08:16:31.018Z,11.00
2019-02-23T08:19:02.782Z,10.80
2019-02-23T08:21:37.744Z,11.20
2019-02-23T08:24:09.579Z,11.90
2019-02-23T08:26:41.743Z,11.90
2019-02-23T08:29:13.516Z,11.70
2019-02-23T08:31:45.461Z,11.80
2019-02-23T08:34:17.361Z,11.70
2019-02-23T08:36:49.420Z,11.40
2019-02-23T08:39:21.214Z,11.20
2019-02-23T08:41:53.180Z,11.60
2019-02-23T08:44:27.772Z,11.60
2019-02-23T08:46:59.909Z,11.10
2019-02-23T08:49:31.704Z,11.10
2019-02-23T08:52:03.840Z,11.10
2019-02-23T08:54:35.637Z,10.80
2019-02-23T08:57:07.675Z,10.30
2019-02-23T08:59:39.438Z,10.20
2019-02-23T09:02:11.586Z,10.00
2019-02-23T09:04:45.706Z,9.80
2019-02-23T09:07:17.865Z,10.10
2019-02-23T09:09:49.717Z,10.50
2019-02-23T09:12:22.220Z,10.70
2019-02-23T09:14:53.949Z,10.80
2019-02-23T09:17:26.061Z,10.90
2019-02-23T09:19:57.847Z,10.60
2019-02-23T09:22:29.714Z,10.70
2019-02-23T09:25:01.538Z,10.50
2019-02-23T09:27:39.808Z,10.40
2019-02-23T09:30:12.315Z,10.40
2019-02-23T09:32:44.485Z,10.20
2019-02-23T09:35:16.254Z,10.30
2019-02-23T09:37:48.212Z,10.30
2019-02-23T09:40:20.023Z,10.50
2019-02-23T09:42:52.423Z,10.60
2019-02-23T09:45:24.197Z,10.30
2019-02-23T09:47:56.367Z,10.30
2019-02-23T09:50:28.154Z,10.10
2019-02-23T09:53:10.440Z,10.30
2019-02-23T09:55:33.772Z,9.90
2019-02-23T09:58:07.282Z,9.30
2019-02-23T10:00:39.447Z,9.60
2019-02-23T10:03:11.312Z,9.70
2019-02-23T10:05:43.066Z,9.60
2019-02-23T10:08:15.143Z,9.90
2019-02-23T10:10:46.887Z,9.60
2019-02-23T10:13:19.133Z,10.40
2019-02-23T10:15:50.868Z,9.80
2019-02-23T10:18:22.712Z,9.60
2019-02-23T10:20:54.481Z,9.70
2019-02-23T10:23:26.417Z,9.80
2019-02-23T10:25:58.494Z,10.10
2019-02-23T10:28:30.663Z,10.10
2019-02-23T10:31:02.463Z,9.80
2019-02-23T10:33:37.135Z,9.40
2019-02-23T10:36:08.126Z,9.70
2019-02-23T10:38:42.697Z,9.80
2019-02-23T10:41:14.506Z,9.30
2019-02-23T10:43:46.534Z,9.70
2019-02-23T10:46:18.274Z,10.20
2019-02-23T10:48:50.350Z,9.50
2019-02-23T10:51:22.115Z,9.40
2019-02-23T10:53:54.375Z,9.30
2019-02-23T10:56:26.155Z,9.10
2019-02-23T10:58:58.814Z,8.90
2019-02-23T11:01:30.735Z,9.10
2019-02-23T11:04:04.391Z,9.20
2019-02-23T11:06:38.450Z,9.10
2019-02-23T11:09:17.114Z,9.00
2019-02-23T11:11:48.891Z,9.00
2019-02-23T11:14:20.956Z,8.60
2019-02-23T11:16:53.900Z,8.70
2019-02-23T11:19:25.792Z,9.00
2019-02-23T11:21:58.674Z,8.60
2019-02-23T11:24:30.624Z,8.90
2019-02-23T11:27:02.486Z,8.80
2019-02-23T11:29:34.863Z,8.80
2019-02-23T11:32:06.666Z,9.50
2019-02-23T11:34:38.491Z,9.40
2019-02-23T11:37:11.707Z,9.40
2019-02-23T11:39:43.655Z,9.70
2019-02-23T11:42:16.489Z,9.70
2019-02-23T11:44:48.577Z,10.00
2019-02-23T11:47:20.346Z,9.90
2019-02-23T11:49:52.359Z,9.50
2019-02-23T11:52:24.738Z,9.40
2019-02-23T11:54:56.758Z,9.60
2019-02-23T11:57:28.566Z,9.90
2019-02-23T12:00:00.897Z,9.50
2019-02-23T12:02:32.878Z,9.70
2019-02-23T12:05:05.052Z,9.40
2019-02-23T12:07:36.838Z,9.10
2019-02-23T12:10:11.618Z,9.80
2019-02-23T12:12:43.797Z,9.90
2019-02-23T12:15:16.263Z,9.40
2019-02-23T12:17:48.053Z,9.70
2019-02-23T12:20:19.873Z,9.70
2019-02-23T12:22:51.732Z,9.90
2019-02-23T12:25:23.928Z,9.10
2019-02-23T12:27:55.685Z,9.80
2019-02-23T12:30:27.698Z,9.40
2019-02-23T12:32:59.515Z,9.70
2019-02-23T12:35:31.887Z,9.80
2019-02-23T12:38:03.789Z,9.90
2019-02-23T12:40:36.934Z,10.30
2019-02-23T12:43:08.695Z,9.90
2019-02-23T12:45:41.048Z,10.10
2019-02-23T12:48:12.915Z,10.10
2019-02-23T12:50:47.635Z,9.90
2019-02-23T12:53:19.482Z,9.90
2019-02-23T12:55:51.564Z,10.00
2019-02-23T12:58:23.370Z,9.60
2019-02-23T13:00:55.812Z,10.20
2019-02-23T13:03:27.588Z,10.30
2019-02-23T13:06:00.047Z,9.70
2019-02-23T13:09:32.475Z,9.90
2019-02-23T13:12:51.897Z,9.10
2019-02-23T13:15:49.833Z,10.20
2019-02-23T13:19:04.757Z,9.30
2019-02-23T13:22:37.347Z,9.60
2019-02-23T13:26:27.320Z,9.40
2019-02-23T13:29:49.226Z,9.50
2019-02-23T13:33:32.096Z,9.50
2019-02-23T13:37:02.939Z,9.30
2019-02-23T13:40:20.648Z,8.50
2019-02-23T13:44:19.393Z,8.00
2019-02-23T13:47:48.257Z,8.00
2019-02-23T13:50:50.688Z,7.40
2019-02-23T13:54:38.547Z,8.00
2019-02-23T13:57:46.271Z,7.60
2019-02-23T14:01:23.273Z,7.80
2019-02-23T14:04:32.703Z,8.00
2019-02-23T14:08:06.231Z,8.60
2019-02-23T14:11:35.108Z,8.80
2019-02-23T14:15:05.506Z,8.70
2019-02-23T14:18:35.708Z,9.10
2019-02-23T14:21:35.598Z,8.50
2019-02-23T14:24:50.964Z,9.30
2019-02-23T14:28:12.607Z,9.00
2019-02-23T14:31:49.514Z,8.90
2019-02-23T14:35:21.852Z,8.70
2019-02-23T14:38:30.510Z,9.30
2019-02-23T14:41:33.252Z,9.00
2019-02-23T14:44:42.167Z,9.50
2019-02-23T14:47:50.044Z,10.10
2019-02-23T14:51:17.867Z,9.70
2019-02-23T14:55:08.535Z,9.70
2019-02-23T14:58:38.224Z,9.20
2019-02-23T15:01:34.355Z,8.80
2019-02-23T15:04:45.897Z,8.70
2019-02-23T15:08:10.446Z,8.70
2019-02-23T15:11:26.320Z,9.30
2019-02-23T15:14:32.110Z,9.10
2019-02-23T15:17:49.047Z,9.20
2019-02-23T15:21:32.854Z,9.20
2019-02-23T15:25:12.938Z,9.60
2019-02-23T15:28:30.331Z,9.90
2019-02-23T15:32:04.019Z,9.70
2019-02-23T15:35:25.330Z,10.10
2019-02-23T15:38:55.787Z,10.20
2019-02-23T15:42:33.838Z,10.10
2019-02-23T15:46:34.276Z,10.70
2019-02-23T15:49:28.991Z,10.00
2019-02-23T15:52:02.774Z,9.80
2019-02-23T15:54:34.852Z,10.30
2019-02-23T15:57:07.244Z,11.00
2019-02-23T15:59:39.284Z,10.70
2019-02-23T16:02:14.236Z,10.60
2019-02-23T16:04:48.032Z,11.20
2019-02-23T16:07:19.970Z,10.60
2019-02-23T16:09:51.917Z,10.70
2019-02-23T16:12:25.011Z,11.10
2019-02-23T16:14:56.975Z,11.30
2019-02-23T16:17:28.894Z,11.30
2019-02-23T16:20:01.271Z,11.00
2019-02-23T16:22:33.503Z,11.40
2019-02-23T16:25:05.675Z,10.90
2019-02-23T16:27:37.948Z,11.00
2019-02-23T16:30:10.924Z,11.00
2019-02-23T16:32:42.730Z,10.70
2019-02-23T16:35:14.748Z,11.10
2019-02-23T16:37:46.534Z,10.80
2019-02-23T16:40:18.581Z,10.80
2019-02-23T16:42:51.587Z,10.60
2019-02-23T16:45:23.549Z,11.00
2019-02-23T16:48:00.681Z,11.10
2019-02-23T16:50:32.882Z,11.00
2019-02-23T16:53:04.689Z,11.40
2019-02-23T16:55:36.669Z,11.50
2019-02-23T16:58:09.653Z,11.20
2019-02-23T17:00:41.573Z,11.10
2019-02-23T17:03:13.476Z,11.30
2019-02-23T17:05:45.376Z,11.20
2019-02-23T17:08:17.226Z,11.80
2019-02-23T17:10:49.103Z,11.70
2019-02-23T17:13:24.472Z,11.50
2019-02-23T17:15:56.267Z,12.00
2019-02-23T17:18:28.105Z,11.80
2019-02-23T17:21:00.076Z,12.10
2019-02-23T17:23:31.891Z,12.10
2019-02-23T17:26:04.693Z,12.50
2019-02-23T17:28:37.029Z,11.90
2019-02-23T17:31:10.251Z,11.60
2019-02-23T17:33:42.581Z,12.20
2019-02-23T17:36:14.784Z,12.20
2019-02-23T17:38:46.587Z,12.50
2019-02-23T17:41:18.835Z,12.50
2019-02-23T17:43:54.061Z,12.50
2019-02-23T17:46:25.183Z,13.20
2019-02-23T17:48:56.953Z,13.70
2019-02-23T17:51:29.129Z,13.10
2019-02-23T17:54:01.001Z,13.30
2019-02-23T17:56:32.931Z,13.10
2019-02-23T17:59:05.036Z,12.80
2019-02-23T18:01:38.336Z,12.80
2019-02-23T18:04:10.175Z,13.20
2019-02-23T18:06:42.073Z,13.10
2019-02-23T18:09:14.069Z,13.00
2019-02-23T18:11:46.176Z,12.50
2019-02-23T18:14:18.311Z,12.30
2019-02-23T18:16:50.246Z,12.40
2019-02-23T18:19:22.165Z,12.30
2019-02-23T18:21:54.350Z,12.00
2019-02-23T18:24:26.369Z,12.10
2019-02-23T18:27:00.007Z,12.20
2019-02-23T18:29:32.338Z,12.30
2019-02-23T18:32:04.557Z,12.30
2019-02-23T18:34:39.253Z,12.00
2019-02-23T18:37:11.450Z,12.10
2019-02-23T18:39:43.306Z,11.90
2019-02-23T18:42:15.708Z,12.20
2019-02-23T18:44:47.650Z,12.30
2019-02-23T18:47:19.838Z,12.40
2019-02-23T18:49:51.870Z,12.30
2019-02-23T18:52:23.948Z,12.30
2019-02-23T18:54:56.000Z,12.30
2019-02-23T18:57:31.039Z,12.30
2019-02-23T19:00:03.372Z,12.40
2019-02-23T19:02:37.193Z,12.60
2019-02-23T19:05:11.849Z,12.60
2019-02-23T19:07:44.163Z,12.70
2019-02-23T19:10:15.476Z,12.70
2019-02-23T19:12:47.547Z,13.00
2019-02-23T19:15:21.358Z,12.50
2019-02-23T19:17:55.171Z,12.40
2019-02-23T19:20:27.099Z,12.60
2019-02-23T19:22:59.395Z,12.60
2019-02-23T19:25:31.303Z,12.60
2019-02-23T19:28:03.514Z,12.50
2019-02-23T19:30:35.832Z,12.60
2019-02-23T19:33:08.175Z,12.70
2019-02-23T19:35:41.749Z,13.20
2019-02-23T19:38:14.203Z,13.20
2019-02-23T19:40:46.257Z,13.20
2019-02-23T19:43:19.063Z,12.90
2019-02-23T19:45:51.962Z,12.80
2019-02-23T19:48:25.275Z,12.70
2019-02-23T19:51:04.108Z,12.80
2019-02-23T19:53:38.270Z,13.10
2019-02-23T19:56:12.027Z,13.00
2019-02-23T19:58:45.695Z,12.60
2019-02-23T20:01:19.396Z,12.80
2019-02-23T20:03:53.282Z,12.70
2019-02-23T20:06:26.121Z,12.80
2019-02-23T20:08:58.628Z,12.90
2019-02-23T20:11:32.010Z,13.00
2019-02-23T20:14:05.344Z,13.00
2019-02-23T20:16:38.803Z,13.00
2019-02-23T20:19:12.735Z,13.30
2019-02-23T20:21:45.777Z,13.20
2019-02-23T20:24:19.540Z,13.00
2019-02-23T20:26:55.686Z,12.70
2019-02-23T20:29:28.487Z,12.60
2019-02-23T20:32:01.845Z,12.90
2019-02-23T20:34:35.319Z,13.10
2019-02-23T20:37:09.169Z,12.90
2019-02-23T20:39:42.817Z,13.20
2019-02-23T20:42:16.962Z,13.70
2019-02-23T20:44:50.738Z,13.60
2019-02-23T20:47:24.090Z,13.40
2019-02-23T20:50:00.262Z,13.30
2019-02-23T20:52:34.188Z,13.00
2019-02-23T20:55:09.427Z,12.90
2019-02-23T20:57:42.943Z,13.40
2019-02-23T21:00:15.708Z,13.20
2019-02-23T21:02:50.117Z,12.80
2019-02-23T21:05:24.049Z,12.80
2019-02-23T21:07:57.268Z,13.30
2019-02-23T21:10:31.128Z,12.70
2019-02-23T21:13:03.781Z,12.50
2019-02-23T21:15:37.080Z,12.50
2019-02-23T21:18:09.772Z,12.40
2019-02-23T21:20:42.299Z,12.10
2019-02-23T21:23:15.007Z,12.30
2019-02-23T21:25:48.252Z,12.50
2019-02-23T21:28:20.702Z,12.70
2019-02-23T21:30:53.342Z,12.50
2019-02-23T21:33:25.834Z,12.50
2019-02-23T21:35:58.479Z,12.20
2019-02-23T21:38:30.470Z,12.20
2019-02-23T21:41:03.012Z,12.30
2019-02-23T21:43:35.166Z,12.10
2019-02-23T21:46:07.552Z,12.50
2019-02-23T21:48:41.204Z,12.30
2019-02-23T21:51:15.576Z,12.10
2019-02-23T21:53:47.187Z,12.20
2019-02-23T21:56:19.346Z,12.30
2019-02-23T21:58:51.234Z,12.10
2019-02-23T22:01:24.591Z,11.70
2019-02-23T22:03:56.812Z,11.60
2019-02-23T22:06:29.038Z,11.80
2019-02-23T22:09:00.852Z,12.00
2019-02-23T22:11:34.725Z,11.90
2019-02-23T22:14:06.623Z,11.80
2019-02-23T22:16:38.562Z,11.90
2019-02-23T22:19:10.756Z,12.20
2019-02-23T22:21:42.980Z,11.90
2019-02-23T22:24:14.863Z,12.10
2019-02-23T22:26:46.987Z,11.90
2019-02-23T22:29:18.813Z,12.10
2019-02-23T22:31:50.713Z,11.90
2019-02-23T22:34:22.597Z,12.10
2019-02-23T22:36:54.493Z,12.50
2019-02-23T22:39:26.285Z,12.70
2019-02-23T22:41:58.357Z,12.50
2019-02-23T22:44:30.257Z,12.60
2019-02-23T22:47:02.594Z,12.30
2019-02-23T22:49:37.101Z,12.00
2019-02-23T22:52:09.309Z,11.90
2019-02-23T22:54:41.172Z,12.50
2019-02-23T22:57:13.188Z,12.70
2019-02-23T22:59:45.022Z,13.10
2019-02-23T23:02:17.157Z,12.80
2019-02-23T23:04:50.193Z,12.90
2019-02-23T23:07:22.318Z,12.00
2019-02-23T23:09:54.102Z,12.50
2019-02-23T23:12:26.133Z,12.80
2019-02-23T23:14:57.900Z,12.50
2019-02-23T23:17:30.061Z,12.20
2019-02-23T23:20:02.099Z,13.30
2019-02-23T23:22:35.276Z,13.40
2019-02-23T23:25:07.963Z,13.30
2019-02-23T23:27:39.954Z,12.60
2019-02-23T23:30:11.743Z,12.30
2019-02-23T23:32:43.816Z,12.10
2019-02-23T23:35:16.144Z,12.10
2019-02-23T23:37:49.470Z,11.90
2019-02-23T23:40:21.337Z,12.30
2019-02-23T23:42:58.121Z,12.50
2019-02-23T23:45:27.097Z,12.30
2019-02-23T23:47:59.353Z,12.40
2019-02-23T23:50:31.700Z,12.20
2019-02-23T23:53:03.899Z,12.30
2019-02-23T23:55:35.797Z,12.40
2019-02-23T23:58:07.607Z,12.40
